East Lincoln, Mississippi
Current Conditions -  °F | °C
As of 3:15 AM on Monday 24 Nov 2014 (Local Time) from K1R7 Reporting Station
Haze Haze  
Wind Chill: 63°   Ceiling: Unl
Heat Index: 63°   Visibility: 5mi
Dew Point: 63°   Wind: 6mph
Humidity: 100%   Direction: 210°SSW
Pressure: 29.73"   Gusts: NA
Location:  31.5898°N, 90.4722°W
Report Text: K1R7 240915Z AUTO 21005KT 5SM BR CLR 17/17 A2973 RMK AO2
Loading
Personal Weather Stations






























Interactive Weather Map New forecast layout! Learn more

10-Day Weather Forecast

Advertisements
Track Severe Weather on mobile